Time;durP1;ratioP1;P1;durP2;ratioP2;P2;SDS_P1;SDS_P2;PMS_P1;PMS_P2;Temp;Humidity;BMP_temperature;BMP_pressure;BME280_temperature;BME280_humidity;BME280_pressure;Samples;Min_cycle;Max_cycle;Signal;HPM_P1;HPM_P2
2023/07/20 00:01:44;;;;;;;10.35;4.95;;;;;;;;;;5223939;28;20378;-71
2023/07/20 00:04:15;;;;;;;13.95;4.75;;;;;;;;;;5224961;28;20033;-71
2023/07/20 00:06:45;;;;;;;9.90;5.13;;;;;;;;;;5224414;28;20028;-71
2023/07/20 00:09:15;;;;;;;11.68;5.60;;;;;;;;;;5224646;28;20029;-71
2023/07/20 00:12:01;;;;;;;18.08;5.25;;;;;;;;;;5224811;28;20021;-71
2023/07/20 00:14:32;;;;;;;11.70;5.75;;;;;;;;;;5222627;28;20028;-71
2023/07/20 00:17:02;;;;;;;12.15;4.97;;;;;;;;;;5225113;28;20005;-71
2023/07/20 00:19:32;;;;;;;12.57;5.20;;;;;;;;;;5224524;28;20027;-71
2023/07/20 00:22:04;;;;;;;11.13;4.93;;;;;;;;;;5224819;28;20025;-71
2023/07/20 00:24:34;;;;;;;14.55;5.15;;;;;;;;;;5224634;28;20032;-71
2023/07/20 00:27:05;;;;;;;10.43;4.82;;;;;;;;;;5224085;28;20079;-71
2023/07/20 00:29:35;;;;;;;13.90;4.90;;;;;;;;;;5224444;28;20486;-71
2023/07/20 00:32:06;;;;;;;20.40;5.47;;;;;;;;;;5224500;28;20096;-71
2023/07/20 00:34:36;;;;;;;11.23;4.60;;;;;;;;;;5224648;28;20024;-70
2023/07/20 00:37:06;;;;;;;18.85;5.50;;;;;;;;;;5224036;28;20032;-72
2023/07/20 00:39:37;;;;;;;11.65;4.57;;;;;;;;;;5224329;28;20020;-71
2023/07/20 00:42:07;;;;;;;15.05;5.38;;;;;;;;;;5224695;28;20017;-71
2023/07/20 00:44:37;;;;;;;11.85;4.30;;;;;;;;;;5224381;28;20017;-71
2023/07/20 00:47:08;;;;;;;17.40;4.50;;;;;;;;;;5223667;28;20032;-71
2023/07/20 00:49:39;;;;;;;15.27;4.40;;;;;;;;;;5224014;28;20033;-71
2023/07/20 00:52:10;;;;;;;11.60;4.90;;;;;;;;;;5223939;28;20017;-71
2023/07/20 00:54:41;;;;;;;13.40;4.75;;;;;;;;;;5224349;28;20090;-71
2023/07/20 00:57:13;;;;;;;14.70;5.07;;;;;;;;;;5223619;28;20052;-71
2023/07/20 00:59:44;;;;;;;16.70;4.53;;;;;;;;;;5223850;28;20179;-71
2023/07/20 01:02:14;;;;;;;13.73;5.20;;;;;;;;;;5224037;28;20111;-71
2023/07/20 01:04:44;;;;;;;26.30;6.43;;;;;;;;;;5224375;28;20466;-71
2023/07/20 01:07:33;;;;;;;9.13;5.10;;;;;;;;;;5223836;28;20013;-71
2023/07/20 01:10:19;;;;;;;12.20;4.82;;;;;;;;;;5211060;28;20090;-71
2023/07/20 01:12:49;;;;;;;;;;;;;;;;;;5225802;28;20017;-71
2023/07/20 01:15:20;;;;;;;9.30;4.53;;;;;;;;;;5228695;28;19974;-71
2023/07/20 01:17:50;;;;;;;9.02;4.78;;;;;;;;;;5227958;28;20021;-71
2023/07/20 01:20:22;;;;;;;10.63;5.00;;;;;;;;;;5228326;28;20020;-71
2023/07/20 01:23:11;;;;;;;10.48;4.32;;;;;;;;;;5228172;28;20028;-71
2023/07/20 01:25:42;;;;;;;9.60;4.72;;;;;;;;;;5227700;28;20116;-71
2023/07/20 01:28:21;;;;;;;18.25;5.28;;;;;;;;;;5228185;28;20544;-71
2023/07/20 01:30:54;;;;;;;11.32;5.35;;;;;;;;;;5228111;28;20038;-71
2023/07/20 01:33:26;;;;;;;12.80;5.15;;;;;;;;;;5227852;28;20036;-71
2023/07/20 01:35:57;;;;;;;13.82;5.07;;;;;;;;;;5227494;28;20450;-71
2023/07/20 01:38:28;;;;;;;10.70;5.57;;;;;;;;;;5227686;28;20083;-71
2023/07/20 01:40:58;;;;;;;14.13;5.15;;;;;;;;;;5227928;28;20020;-71
2023/07/20 01:43:29;;;;;;;15.45;5.22;;;;;;;;;;5227848;28;20013;-71
2023/07/20 01:45:59;;;;;;;17.10;6.30;;;;;;;;;;5227155;28;20029;-71
2023/07/20 01:48:31;;;;;;;16.73;5.43;;;;;;;;;;5227514;28;20021;-71
2023/07/20 01:51:01;;;;;;;14.05;4.53;;;;;;;;;;5228141;28;20021;-70
2023/07/20 01:53:31;;;;;;;15.48;4.80;;;;;;;;;;5227527;28;20079;-71
2023/07/20 01:56:02;;;;;;;12.02;5.57;;;;;;;;;;5227832;28;20051;-71
2023/07/20 01:58:32;;;;;;;12.70;5.15;;;;;;;;;;5226991;28;20086;-71
2023/07/20 02:01:02;;;;;;;12.40;5.38;;;;;;;;;;5227628;28;20060;-71
2023/07/20 02:03:33;;;;;;;14.35;5.85;;;;;;;;;;5227332;28;20474;-71
2023/07/20 02:06:03;;;;;;;13.27;5.30;;;;;;;;;;5225857;28;20028;-71
2023/07/20 02:08:33;;;;;;;13.55;5.82;;;;;;;;;;5227252;28;20103;-71
2023/07/20 02:11:04;;;;;;;18.52;6.07;;;;;;;;;;5226960;28;20098;-71
2023/07/20 02:13:35;;;;;;;17.60;6.20;;;;;;;;;;5227342;28;20096;-71
2023/07/20 02:16:05;;;;;;;14.30;5.88;;;;;;;;;;5226782;28;20120;-71
2023/07/20 02:18:36;;;;;;;14.30;5.40;;;;;;;;;;5226912;28;20067;-71
2023/07/20 02:21:07;;;;;;;17.65;6.35;;;;;;;;;;5227170;28;20104;-71
2023/07/20 02:23:37;;;;;;;15.85;5.63;;;;;;;;;;5226458;28;20101;-71
2023/07/20 02:26:07;;;;;;;10.95;5.78;;;;;;;;;;5224811;28;20013;-71
2023/07/20 02:28:37;;;;;;;11.65;5.47;;;;;;;;;;5226928;28;20471;-71
2023/07/20 02:31:08;;;;;;;13.77;5.45;;;;;;;;;;5226988;28;20029;-71
2023/07/20 02:33:38;;;;;;;14.68;5.72;;;;;;;;;;5226864;28;20052;-71
2023/07/20 02:36:08;;;;;;;12.18;5.30;;;;;;;;;;5226544;28;20394;-71
2023/07/20 02:38:38;;;;;;;9.38;5.20;;;;;;;;;;5226797;28;20025;-71
2023/07/20 02:41:09;;;;;;;12.60;6.60;;;;;;;;;;5226873;28;20511;-71
2023/07/20 02:43:39;;;;;;;14.25;5.30;;;;;;;;;;5226971;28;20021;-71
2023/07/20 02:46:09;;;;;;;12.68;6.07;;;;;;;;;;5226374;28;20051;-71
2023/07/20 02:48:39;;;;;;;12.35;5.57;;;;;;;;;;5225926;28;20372;-71
2023/07/20 02:51:11;;;;;;;21.25;7.22;;;;;;;;;;5226829;28;20020;-71
2023/07/20 02:53:41;;;;;;;21.30;7.03;;;;;;;;;;5226309;28;20020;-71
2023/07/20 02:56:11;;;;;;;18.08;6.75;;;;;;;;;;5226181;28;20108;-71
2023/07/20 02:58:43;;;;;;;15.20;7.30;;;;;;;;;;5226090;28;20053;-71
2023/07/20 03:01:15;;;;;;;15.57;6.57;;;;;;;;;;5226038;28;20025;-71
2023/07/20 03:03:46;;;;;;;14.95;6.57;;;;;;;;;;5226210;28;20029;-71
2023/07/20 03:06:16;;;;;;;16.58;7.38;;;;;;;;;;5225926;28;20017;-71
2023/07/20 03:08:48;;;;;;;15.50;6.35;;;;;;;;;;5226037;28;20363;-70
2023/07/20 03:11:19;;;;;;;25.95;8.82;;;;;;;;;;5225960;28;20471;-71
2023/07/20 03:13:49;;;;;;;18.17;6.93;;;;;;;;;;5225945;28;20025;-71
2023/07/20 03:16:20;;;;;;;24.63;8.32;;;;;;;;;;5225464;28;20052;-70
2023/07/20 03:18:50;;;;;;;18.67;7.35;;;;;;;;;;5225925;28;20021;-70
2023/07/20 03:21:21;;;;;;;14.65;7.20;;;;;;;;;;5226010;28;20112;-71
2023/07/20 03:23:51;;;;;;;15.43;6.22;;;;;;;;;;5225850;28;20394;-71
2023/07/20 03:26:21;;;;;;;17.88;6.47;;;;;;;;;;5225531;28;20028;-71
2023/07/20 03:28:52;;;;;;;13.63;7.05;;;;;;;;;;5226028;28;20474;-71
2023/07/20 03:31:22;;;;;;;18.95;6.97;;;;;;;;;;5225947;28;20470;-71
2023/07/20 03:33:52;;;;;;;15.40;6.72;;;;;;;;;;5225803;28;20025;-71
2023/07/20 03:36:22;;;;;;;17.65;7.57;;;;;;;;;;5224992;28;20067;-70
2023/07/20 03:38:53;;;;;;;15.50;7.68;;;;;;;;;;5225493;28;20024;-71
2023/07/20 03:41:23;;;;;;;19.88;8.40;;;;;;;;;;5225729;28;20428;-71
2023/07/20 03:43:54;;;;;;;24.05;8.32;;;;;;;;;;5225465;28;20017;-71
2023/07/20 03:46:24;;;;;;;16.05;8.23;;;;;;;;;;5225201;28;20467;-71
2023/07/20 03:48:54;;;;;;;18.73;8.43;;;;;;;;;;5224872;28;20032;-71
2023/07/20 03:51:26;;;;;;;22.92;8.98;;;;;;;;;;5225078;28;20124;-71
2023/07/20 03:53:56;;;;;;;17.48;8.60;;;;;;;;;;5225477;28;20025;-70
2023/07/20 03:56:26;;;;;;;23.52;8.82;;;;;;;;;;5224915;28;20493;-71
2023/07/20 03:58:57;;;;;;;18.27;7.85;;;;;;;;;;5225189;28;20029;-71
2023/07/20 04:01:27;;;;;;;18.88;7.85;;;;;;;;;;5224643;28;20020;-71
2023/07/20 04:03:57;;;;;;;24.92;8.52;;;;;;;;;;5225217;28;20028;-71
2023/07/20 04:06:28;;;;;;;22.52;9.38;;;;;;;;;;5224889;28;20017;-71
2023/07/20 04:08:58;;;;;;;21.77;9.60;;;;;;;;;;5224769;28;20033;-71
2023/07/20 04:11:28;;;;;;;18.52;9.85;;;;;;;;;;5224961;28;20024;-71
2023/07/20 04:13:58;;;;;;;22.52;10.60;;;;;;;;;;5224721;28;20044;-71
2023/07/20 04:16:29;;;;;;;21.70;9.73;;;;;;;;;;5224974;28;20021;-70
2023/07/20 04:18:59;;;;;;;23.80;9.52;;;;;;;;;;5224611;28;20088;-71
2023/07/20 04:21:29;;;;;;;18.48;9.05;;;;;;;;;;5224836;28;20083;-71
2023/07/20 04:24:00;;;;;;;21.45;10.10;;;;;;;;;;5224868;28;20025;-71
2023/07/20 04:26:30;;;;;;;22.15;10.10;;;;;;;;;;5224154;28;20071;-70
2023/07/20 04:29:00;;;;;;;23.20;10.43;;;;;;;;;;5224570;28;20035;-71
2023/07/20 04:31:33;;;;;;;27.38;10.65;;;;;;;;;;5225090;28;20025;-71
2023/07/20 04:34:03;;;;;;;22.15;11.00;;;;;;;;;;5224762;28;20020;-70
2023/07/20 04:36:33;;;;;;;22.10;10.45;;;;;;;;;;5224278;28;20416;-71
2023/07/20 04:39:05;;;;;;;25.67;10.63;;;;;;;;;;5224142;28;20658;-70
2023/07/20 04:41:35;;;;;;;23.10;9.68;;;;;;;;;;5224626;28;20300;-70
2023/07/20 04:44:06;;;;;;;24.23;10.10;;;;;;;;;;5224336;28;20389;-71
2023/07/20 04:46:36;;;;;;;21.52;10.57;;;;;;;;;;5223457;28;20017;-71
2023/07/20 04:49:06;;;;;;;21.52;11.13;;;;;;;;;;5223869;28;20525;-71
2023/07/20 04:51:36;;;;;;;26.50;11.50;;;;;;;;;;5223874;28;20467;-71
2023/07/20 04:54:07;;;;;;;23.70;11.35;;;;;;;;;;5224221;28;20032;-70
2023/07/20 04:56:37;;;;;;;26.95;11.35;;;;;;;;;;5223825;28;20103;-71
2023/07/20 04:59:07;;;;;;;27.80;11.80;;;;;;;;;;5224037;28;20438;-71
2023/07/20 05:01:37;;;;;;;25.55;11.40;;;;;;;;;;5224081;28;20021;-71
2023/07/20 05:04:08;;;;;;;27.92;12.65;;;;;;;;;;5223803;28;20467;-71
2023/07/20 05:06:38;;;;;;;30.40;11.25;;;;;;;;;;5223472;28;20501;-71
2023/07/20 05:09:09;;;;;;;28.20;11.50;;;;;;;;;;5224091;28;20032;-71
2023/07/20 05:11:39;;;;;;;29.58;12.05;;;;;;;;;;5223948;28;20083;-71
2023/07/20 05:14:09;;;;;;;22.98;11.50;;;;;;;;;;5223510;28;20027;-71
2023/07/20 05:16:40;;;;;;;22.60;11.82;;;;;;;;;;5223236;28;20413;-71
2023/07/20 05:19:10;;;;;;;31.75;12.00;;;;;;;;;;5223734;28;20032;-71
2023/07/20 05:21:40;;;;;;;25.48;12.20;;;;;;;;;;5224037;28;20017;-71
2023/07/20 05:24:11;;;;;;;23.80;10.98;;;;;;;;;;5223888;28;20071;-71
2023/07/20 05:26:41;;;;;;;21.60;11.00;;;;;;;;;;5223551;28;20013;-71
2023/07/20 05:29:11;;;;;;;27.60;12.02;;;;;;;;;;5223478;28;20051;-71
2023/07/20 05:31:42;;;;;;;24.90;10.65;;;;;;;;;;5224030;28;20013;-71
2023/07/20 05:34:12;;;;;;;29.63;11.65;;;;;;;;;;5223818;28;20403;-71
2023/07/20 05:36:42;;;;;;;23.38;11.13;;;;;;;;;;5223370;28;20067;-71
2023/07/20 05:39:12;;;;;;;18.83;10.70;;;;;;;;;;5223571;28;20486;-71
2023/07/20 05:41:43;;;;;;;29.15;12.90;;;;;;;;;;5223462;28;20107;-71
2023/07/20 05:44:13;;;;;;;26.25;12.35;;;;;;;;;;5224020;28;20017;-71
2023/07/20 05:46:43;;;;;;;22.30;11.18;;;;;;;;;;5223157;28;20536;-71
2023/07/20 05:49:14;;;;;;;23.98;12.05;;;;;;;;;;5223461;28;20057;-70
2023/07/20 05:51:46;;;;;;;28.73;12.93;;;;;;;;;;5223293;28;20028;-71
2023/07/20 05:54:16;;;;;;;25.20;13.52;;;;;;;;;;5223766;28;20032;-71
2023/07/20 05:56:47;;;;;;;27.48;12.85;;;;;;;;;;5223049;28;20394;-71
2023/07/20 05:59:17;;;;;;;24.85;12.43;;;;;;;;;;5223736;28;20024;-71
2023/07/20 06:01:48;;;;;;;27.35;12.80;;;;;;;;;;5227215;28;20074;-71
2023/07/20 06:04:19;;;;;;;25.90;12.10;;;;;;;;;;5226839;28;20016;-71
2023/07/20 06:06:49;;;;;;;26.83;13.02;;;;;;;;;;5226870;28;20470;-71
2023/07/20 06:09:19;;;;;;;21.88;12.15;;;;;;;;;;5226946;28;20095;-71
2023/07/20 06:11:50;;;;;;;26.13;12.07;;;;;;;;;;5227344;28;20017;-71
2023/07/20 06:14:20;;;;;;;26.35;12.45;;;;;;;;;;5227137;28;20025;-71
2023/07/20 06:16:50;;;;;;;27.30;13.13;;;;;;;;;;5226673;28;20027;-71
2023/07/20 06:19:22;;;;;;;24.58;13.10;;;;;;;;;;5226768;28;20379;-71
2023/07/20 06:21:52;;;;;;;25.90;13.60;;;;;;;;;;5227463;28;20021;-71
2023/07/20 06:24:22;;;;;;;29.40;13.85;;;;;;;;;;5226888;28;20110;-71
2023/07/20 06:26:53;;;;;;;28.95;14.30;;;;;;;;;;5226714;28;20103;-70
2023/07/20 06:29:23;;;;;;;27.83;14.65;;;;;;;;;;5226413;28;20021;-71
2023/07/20 06:31:53;;;;;;;29.90;14.25;;;;;;;;;;5227070;28;20025;-71
2023/07/20 06:34:24;;;;;;;25.90;14.80;;;;;;;;;;5226679;28;20023;-71
2023/07/20 06:36:54;;;;;;;33.55;15.43;;;;;;;;;;5226728;28;20048;-71
2023/07/20 06:39:25;;;;;;;28.65;14.60;;;;;;;;;;5226538;28;20029;-71
2023/07/20 06:41:55;;;;;;;30.38;15.88;;;;;;;;;;5226275;28;20021;-71
2023/07/20 06:44:25;;;;;;;28.90;14.85;;;;;;;;;;5226633;28;20495;-71
2023/07/20 06:46:55;;;;;;;26.92;13.52;;;;;;;;;;5226181;28;20021;-71
2023/07/20 06:49:27;;;;;;;25.15;14.27;;;;;;;;;;5226399;28;20017;-71
2023/07/20 06:51:57;;;;;;;29.55;14.57;;;;;;;;;;5226600;28;20394;-71
2023/07/20 06:54:27;;;;;;;26.92;14.82;;;;;;;;;;5226071;28;20024;-71
2023/07/20 06:56:58;;;;;;;25.42;13.60;;;;;;;;;;5226000;28;20032;-71
2023/07/20 06:59:28;;;;;;;28.27;15.10;;;;;;;;;;5226064;28;20021;-71
2023/07/20 07:01:59;;;;;;;24.73;14.20;;;;;;;;;;5226324;28;20020;-71
2023/07/20 07:04:29;;;;;;;21.30;13.50;;;;;;;;;;5226555;28;20460;-71
2023/07/20 07:07:00;;;;;;;20.65;12.70;;;;;;;;;;5225495;28;20070;-71
2023/07/20 07:09:30;;;;;;;27.60;13.27;;;;;;;;;;5226038;28;20094;-71
2023/07/20 07:12:01;;;;;;;25.10;13.80;;;;;;;;;;5225677;28;20021;-71
2023/07/20 07:14:31;;;;;;;25.60;13.98;;;;;;;;;;5226040;28;20024;-71
2023/07/20 07:17:01;;;;;;;20.05;12.02;;;;;;;;;;5225511;28;20024;-71
2023/07/20 07:19:31;;;;;;;22.00;12.27;;;;;;;;;;5225374;28;20394;-71
2023/07/20 07:22:02;;;;;;;21.10;11.55;;;;;;;;;;5226388;28;20374;-71
2023/07/20 07:24:34;;;;;;;17.88;11.55;;;;;;;;;;5225788;28;20429;-71
2023/07/20 07:27:04;;;;;;;22.75;10.93;;;;;;;;;;5224316;28;20021;-71
2023/07/20 07:29:34;;;;;;;18.23;10.00;;;;;;;;;;5225570;28;20082;-71
2023/07/20 07:32:05;;;;;;;20.08;10.68;;;;;;;;;;5225398;28;20379;-71
2023/07/20 07:34:35;;;;;;;15.88;9.88;;;;;;;;;;5225856;28;20017;-71
2023/07/20 07:37:06;;;;;;;15.60;9.70;;;;;;;;;;5225532;28;20059;-71
2023/07/20 07:39:36;;;;;;;13.63;10.27;;;;;;;;;;5225464;28;20032;-71
2023/07/20 07:42:06;;;;;;;15.10;8.93;;;;;;;;;;5225428;28;20025;-71
2023/07/20 07:44:36;;;;;;;12.75;8.32;;;;;;;;;;5225220;28;20094;-71
2023/07/20 07:47:07;;;;;;;16.17;9.38;;;;;;;;;;5225003;28;20100;-71
2023/07/20 07:49:37;;;;;;;15.27;9.82;;;;;;;;;;5225138;28;20075;-71
2023/07/20 07:52:08;;;;;;;16.25;9.20;;;;;;;;;;5225299;28;20033;-71
2023/07/20 07:54:38;;;;;;;17.27;9.02;;;;;;;;;;5225058;28;20031;-71
2023/07/20 07:57:08;;;;;;;14.13;8.15;;;;;;;;;;5224578;28;20111;-71
2023/07/20 07:59:39;;;;;;;13.25;8.38;;;;;;;;;;5224910;28;20074;-71
2023/07/20 08:02:09;;;;;;;13.60;8.07;;;;;;;;;;5225014;28;20040;-71
2023/07/20 08:04:40;;;;;;;10.85;7.70;;;;;;;;;;5224906;28;20433;-71
2023/07/20 08:07:10;;;;;;;11.85;7.07;;;;;;;;;;5224534;28;20017;-71
2023/07/20 08:09:40;;;;;;;13.27;6.88;;;;;;;;;;5224529;28;20425;-71
2023/07/20 08:12:11;;;;;;;7.22;5.65;;;;;;;;;;5225182;28;20033;-71
2023/07/20 08:14:41;;;;;;;7.65;5.00;;;;;;;;;;5224890;28;20021;-71
2023/07/20 08:17:11;;;;;;;8.70;5.85;;;;;;;;;;5224526;28;20020;-72
2023/07/20 08:19:42;;;;;;;9.18;5.32;;;;;;;;;;5224172;28;20021;-72
2023/07/20 08:22:12;;;;;;;9.38;4.90;;;;;;;;;;5224252;28;20033;-72
2023/07/20 08:24:43;;;;;;;6.70;4.00;;;;;;;;;;5224682;28;20017;-72
2023/07/20 08:27:13;;;;;;;6.70;4.85;;;;;;;;;;5224272;28;20025;-72
2023/07/20 08:29:43;;;;;;;8.05;4.75;;;;;;;;;;5224471;28;20501;-72
2023/07/20 08:32:14;;;;;;;8.38;5.22;;;;;;;;;;5224543;28;20100;-72
2023/07/20 08:34:44;;;;;;;6.97;5.53;;;;;;;;;;5224593;28;20048;-72
2023/07/20 08:37:15;;;;;;;9.85;5.03;;;;;;;;;;5224094;28;20032;-72
2023/07/20 08:39:45;;;;;;;9.55;4.60;;;;;;;;;;5224495;28;20028;-72
2023/07/20 08:42:16;;;;;;;5.88;4.20;;;;;;;;;;5224397;28;20032;-72
2023/07/20 08:44:48;;;;;;;6.20;4.90;;;;;;;;;;5223866;28;20027;-72
2023/07/20 08:47:19;;;;;;;5.82;3.97;;;;;;;;;;5224105;28;20386;-72
2023/07/20 08:49:49;;;;;;;6.88;4.35;;;;;;;;;;5224288;28;20019;-72
2023/07/20 08:52:19;;;;;;;6.75;5.18;;;;;;;;;;5224479;28;20048;-72
2023/07/20 08:54:50;;;;;;;7.40;5.20;;;;;;;;;;5224503;28;20098;-72
2023/07/20 08:57:21;;;;;;;7.10;4.07;;;;;;;;;;5223673;28;20385;-72
2023/07/20 08:59:52;;;;;;;6.47;4.45;;;;;;;;;;5223855;28;20017;-72
2023/07/20 09:02:25;;;;;;;6.25;4.40;;;;;;;;;;5224152;28;20029;-72
2023/07/20 09:04:55;;;;;;;6.05;3.70;;;;;;;;;;5224126;28;20017;-72
2023/07/20 09:07:25;;;;;;;4.38;2.95;;;;;;;;;;5223714;28;20024;-71
2023/07/20 09:09:57;;;;;;;5.13;2.80;;;;;;;;;;5223523;28;20075;-71
2023/07/20 09:12:27;;;;;;;3.03;2.70;;;;;;;;;;5224214;28;20486;-72
2023/07/20 09:14:58;;;;;;;3.53;2.47;;;;;;;;;;5224523;28;20088;-72
2023/07/20 09:17:28;;;;;;;2.28;2.08;;;;;;;;;;5223473;28;20118;-72
2023/07/20 09:20:01;;;;;;;5.15;2.38;;;;;;;;;;5223881;28;20489;-72
2023/07/20 09:22:31;;;;;;;2.60;2.40;;;;;;;;;;5223692;28;20027;-72
2023/07/20 09:25:01;;;;;;;2.60;2.17;;;;;;;;;;5224064;28;20009;-72
2023/07/20 09:27:51;;;;;;;4.03;2.17;;;;;;;;;;5223459;28;20025;-72
2023/07/20 09:30:24;;;;;;;3.00;2.60;;;;;;;;;;5223690;28;20025;-72
2023/07/20 09:32:55;;;;;;;4.10;2.22;;;;;;;;;;5223674;28;20398;-72
2023/07/20 09:35:25;;;;;;;3.13;2.80;;;;;;;;;;5227584;28;20033;-72
2023/07/20 09:38:11;;;;;;;2.55;2.20;;;;;;;;;;5227843;28;20127;-72
2023/07/20 09:40:42;;;;;;;4.60;2.22;;;;;;;;;;5228197;28;20045;-73
2023/07/20 09:43:12;;;;;;;3.42;2.17;;;;;;;;;;5227410;28;20075;-72
2023/07/20 09:45:42;;;;;;;2.30;1.90;;;;;;;;;;5227425;28;20029;-72
2023/07/20 09:48:13;;;;;;;4.30;2.40;;;;;;;;;;5227724;28;20040;-72
2023/07/20 09:50:48;;;;;;;4.15;2.40;;;;;;;;;;5227766;28;20032;-72
2023/07/20 09:53:19;;;;;;;3.95;2.40;;;;;;;;;;5227760;28;20017;-72
2023/07/20 09:55:50;;;;;;;3.97;2.65;;;;;;;;;;5227147;28;20029;-72
2023/07/20 09:58:22;;;;;;;3.00;2.22;;;;;;;;;;5227219;28;20470;-72
2023/07/20 10:00:57;;;;;;;3.42;2.58;;;;;;;;;;5227575;28;20394;-72
2023/07/20 10:03:27;;;;;;;;;;;;;;;;;;5227904;28;20025;-72
2023/07/20 10:06:03;;;;;;;4.07;1.87;;;;;;;;;;5226769;28;19912;-72
2023/07/20 10:08:34;;;;;;;5.53;1.90;;;;;;;;;;5227472;28;20021;-73
2023/07/20 10:11:05;;;;;;;3.85;2.53;;;;;;;;;;5227244;28;20371;-73
2023/07/20 10:13:37;;;;;;;4.28;2.10;;;;;;;;;;5227368;28;20055;-73
2023/07/20 10:16:24;;;;;;;3.00;2.13;;;;;;;;;;5227002;28;20056;-73
2023/07/20 10:18:59;;;;;;;5.20;2.10;;;;;;;;;;5227138;28;20028;-73
2023/07/20 10:21:29;;;;;;;7.28;2.70;;;;;;;;;;5227361;28;20017;-73
2023/07/20 10:24:00;;;;;;;2.13;1.92;;;;;;;;;;5226994;28;20027;-73
2023/07/20 10:26:31;;;;;;;7.05;2.35;;;;;;;;;;5226755;28;20088;-73
2023/07/20 10:29:03;;;;;;;2.30;2.00;;;;;;;;;;5226522;28;20566;-72
2023/07/20 10:31:33;;;;;;;4.32;2.08;;;;;;;;;;5227118;28;20104;-72
2023/07/20 10:34:04;;;;;;;3.50;2.05;;;;;;;;;;5227127;28;20108;-73
2023/07/20 10:36:43;;;;;;;3.53;2.17;;;;;;;;;;5226643;28;20028;-73
2023/07/20 10:39:23;;;;;;;4.00;1.80;;;;;;;;;;5226742;28;20478;-72
2023/07/20 10:42:12;;;;;;;2.28;1.80;;;;;;;;;;5226790;28;20055;-73
2023/07/20 10:44:44;;;;;;;4.15;1.75;;;;;;;;;;5226438;28;20024;-72
2023/07/20 10:47:14;;;;;;;4.10;2.10;;;;;;;;;;5225808;28;20021;-72
2023/07/20 10:50:03;;;;;;;3.40;1.73;;;;;;;;;;5226171;28;20250;-73
2023/07/20 10:52:52;;;;;;;1.92;1.50;;;;;;;;;;5226495;28;20024;-72
2023/07/20 10:55:22;;;;;;;1.80;1.35;;;;;;;;;;5226476;28;20305;-73
2023/07/20 10:58:06;;;;;;;4.10;1.58;;;;;;;;;;5226239;28;20074;-73
2023/07/20 11:00:37;;;;;;;2.75;1.75;;;;;;;;;;5226634;28;20017;-73
2023/07/20 11:03:08;;;;;;;3.25;1.80;;;;;;;;;;5226606;28;20040;-72
2023/07/20 11:05:39;;;;;;;2.95;1.60;;;;;;;;;;5226527;28;20483;-72
2023/07/20 11:08:11;;;;;;;4.22;1.42;;;;;;;;;;5226568;28;20017;-72
2023/07/20 11:10:41;;;;;;;2.50;1.30;;;;;;;;;;5225746;28;20032;-72
2023/07/20 11:13:31;;;;;;;2.60;1.50;;;;;;;;;;5226114;28;20462;-72
2023/07/20 11:16:04;;;;;;;3.30;1.45;;;;;;;;;;5225747;28;20049;-72
2023/07/20 11:18:39;;;;;;;1.52;1.25;;;;;;;;;;5225763;28;20032;-72
2023/07/20 11:21:10;;;;;;;3.30;1.55;;;;;;;;;;5225689;28;20017;-72
2023/07/20 11:23:41;;;;;;;1.65;1.30;;;;;;;;;;5226124;28;20074;-72
2023/07/20 11:26:12;;;;;;;2.90;1.30;;;;;;;;;;5224349;28;20033;-72
2023/07/20 11:28:42;;;;;;;6.15;1.98;;;;;;;;;;5224824;28;20060;-72
2023/07/20 11:31:13;;;;;;;5.10;1.60;;;;;;;;;;5226120;28;20342;-72
2023/07/20 11:33:44;;;;;;;2.95;1.38;;;;;;;;;;5225435;28;20028;-72
2023/07/20 11:36:14;;;;;;;3.47;1.42;;;;;;;;;;5225366;28;20025;-72
2023/07/20 11:38:45;;;;;;;2.90;1.50;;;;;;;;;;5225487;28;20028;-72
2023/07/20 11:41:16;;;;;;;4.43;1.80;;;;;;;;;;5225939;28;20052;-72
2023/07/20 11:43:47;;;;;;;2.50;1.40;;;;;;;;;;5225383;28;20490;-72
2023/07/20 11:46:17;;;;;;;3.28;1.30;;;;;;;;;;5225212;28;20025;-72
2023/07/20 11:48:48;;;;;;;1.83;1.40;;;;;;;;;;5225281;28;20052;-72
2023/07/20 11:51:19;;;;;;;6.07;1.25;;;;;;;;;;5225506;28;20036;-72
2023/07/20 11:53:49;;;;;;;3.88;1.00;;;;;;;;;;5225631;28;20021;-72
2023/07/20 11:56:20;;;;;;;1.20;0.73;;;;;;;;;;5224987;28;20363;-72
2023/07/20 11:58:50;;;;;;;0.65;0.57;;;;;;;;;;5224322;28;20017;-72
2023/07/20 12:01:20;;;;;;;3.25;0.90;;;;;;;;;;5224943;28;20038;-72
2023/07/20 12:03:51;;;;;;;1.58;0.70;;;;;;;;;;5224188;28;20021;-73
2023/07/20 12:06:23;;;;;;;1.08;0.63;;;;;;;;;;5224616;28;20363;-72
2023/07/20 12:08:56;;;;;;;1.50;0.80;;;;;;;;;;5224620;28;20047;-72
2023/07/20 12:11:39;;;;;;;1.80;0.90;;;;;;;;;;5224868;28;20017;-72
2023/07/20 12:14:09;;;;;;;6.53;1.10;;;;;;;;;;5224313;28;20025;-72
2023/07/20 12:16:39;;;;;;;2.28;1.00;;;;;;;;;;5224385;28;20069;-72
2023/07/20 12:19:11;;;;;;;0.75;0.70;;;;;;;;;;5224524;28;20360;-72
2023/07/20 12:21:42;;;;;;;1.60;1.00;;;;;;;;;;5224759;28;20110;-72
2023/07/20 12:24:12;;;;;;;1.85;1.30;;;;;;;;;;5224739;28;20456;-72
2023/07/20 12:26:43;;;;;;;4.47;1.13;;;;;;;;;;5224304;28;20386;-72
2023/07/20 12:29:13;;;;;;;1.55;1.10;;;;;;;;;;5224602;28;20044;-72
2023/07/20 12:31:44;;;;;;;1.15;0.90;;;;;;;;;;5224883;28;20056;-72
2023/07/20 12:34:14;;;;;;;2.40;1.02;;;;;;;;;;5224876;28;20090;-72
2023/07/20 12:36:45;;;;;;;2.40;1.10;;;;;;;;;;5224542;28;20028;-72
2023/07/20 12:39:15;;;;;;;1.63;1.00;;;;;;;;;;5224405;28;20029;-72
2023/07/20 12:41:46;;;;;;;3.22;0.93;;;;;;;;;;5224631;28;20078;-72
2023/07/20 12:44:16;;;;;;;1.35;0.90;;;;;;;;;;5224148;28;20024;-73
2023/07/20 12:46:46;;;;;;;2.22;0.80;;;;;;;;;;5223872;28;20023;-72
2023/07/20 12:49:17;;;;;;;1.65;0.80;;;;;;;;;;5224208;28;20028;-73
2023/07/20 12:51:47;;;;;;;1.33;0.60;;;;;;;;;;5224424;28;20024;-72
2023/07/20 12:54:18;;;;;;;1.13;0.68;;;;;;;;;;5224181;28;20075;-72
2023/07/20 12:56:48;;;;;;;2.28;0.73;;;;;;;;;;5223552;28;20017;-72
2023/07/20 12:59:18;;;;;;;1.48;0.70;;;;;;;;;;5223882;28;20533;-72
2023/07/20 13:01:48;;;;;;;1.33;0.90;;;;;;;;;;5223784;28;20033;-72
2023/07/20 13:04:19;;;;;;;1.67;0.80;;;;;;;;;;5224081;28;20044;-72
2023/07/20 13:06:49;;;;;;;3.05;1.17;;;;;;;;;;5223797;28;20029;-72
2023/07/20 13:09:19;;;;;;;1.90;1.00;;;;;;;;;;5223393;28;20363;-72
2023/07/20 13:11:49;;;;;;;1.20;0.80;;;;;;;;;;5224324;28;20060;-72
2023/07/20 13:14:20;;;;;;;1.25;0.80;;;;;;;;;;5222748;28;20471;-72
2023/07/20 13:16:50;;;;;;;2.13;0.90;;;;;;;;;;5224032;28;20024;-72
2023/07/20 13:19:20;;;;;;;2.13;0.77;;;;;;;;;;5222543;28;20092;-72
2023/07/20 13:21:51;;;;;;;1.38;0.80;;;;;;;;;;5224326;28;20021;-71
2023/07/20 13:24:21;;;;;;;4.35;0.70;;;;;;;;;;5223967;28;20029;-72
2023/07/20 13:26:51;;;;;;;6.10;1.20;;;;;;;;;;5223586;28;20021;-72
2023/07/20 13:29:22;;;;;;;3.05;1.02;;;;;;;;;;5223999;28;20099;-72
2023/07/20 13:31:53;;;;;;;1.33;0.70;;;;;;;;;;5224043;28;20039;-72
2023/07/20 13:34:23;;;;;;;1.75;0.90;;;;;;;;;;5223935;28;20017;-72
2023/07/20 13:36:54;;;;;;;2.10;1.05;;;;;;;;;;5223425;28;20025;-72
2023/07/20 13:39:26;;;;;;;2.65;0.90;;;;;;;;;;5223875;28;20108;-72
2023/07/20 13:41:57;;;;;;;2.80;1.17;;;;;;;;;;5223829;28;20028;-71
2023/07/20 13:44:27;;;;;;;1.13;0.90;;;;;;;;;;5223822;28;20028;-72
2023/07/20 13:46:57;;;;;;;1.13;0.88;;;;;;;;;;5222837;28;20025;-72
2023/07/20 13:49:28;;;;;;;1.13;1.00;;;;;;;;;;5223739;28;20013;-72
2023/07/20 13:51:58;;;;;;;1.63;1.15;;;;;;;;;;5223700;28;20032;-71
2023/07/20 13:54:28;;;;;;;6.18;1.30;;;;;;;;;;5223593;28;20039;-72
2023/07/20 13:56:59;;;;;;;1.48;1.00;;;;;;;;;;5223158;28;20115;-72
2023/07/20 13:59:29;;;;;;;2.47;1.10;;;;;;;;;;5223151;28;20036;-72
2023/07/20 14:01:59;;;;;;;2.17;1.25;;;;;;;;;;5223480;28;20065;-72
2023/07/20 14:04:30;;;;;;;2.50;1.23;;;;;;;;;;5223511;28;20483;-72
2023/07/20 14:07:00;;;;;;;2.88;0.93;;;;;;;;;;5223064;28;20096;-71
2023/07/20 14:09:30;;;;;;;2.20;1.10;;;;;;;;;;5223429;28;20099;-72
2023/07/20 14:12:00;;;;;;;2.55;1.15;;;;;;;;;;5223423;28;20398;-72
2023/07/20 14:14:31;;;;;;;5.35;1.52;;;;;;;;;;5223281;28;20538;-72
2023/07/20 14:17:01;;;;;;;2.50;1.52;;;;;;;;;;5223676;28;20020;-71
2023/07/20 14:19:31;;;;;;;1.70;1.42;;;;;;;;;;5223230;28;20399;-72
2023/07/20 14:22:03;;;;;;;1.83;1.63;;;;;;;;;;5226442;28;20021;-71
2023/07/20 14:24:34;;;;;;;3.40;1.55;;;;;;;;;;5226692;28;20031;-71
2023/07/20 14:27:04;;;;;;;4.60;1.92;;;;;;;;;;5226722;28;20108;-72
2023/07/20 14:29:36;;;;;;;1.83;1.67;;;;;;;;;;5227130;28;20421;-71
2023/07/20 14:32:07;;;;;;;3.17;1.60;;;;;;;;;;5227558;28;20415;-71
2023/07/20 14:34:37;;;;;;;1.42;1.33;;;;;;;;;;5226975;28;20028;-71
2023/07/20 14:37:08;;;;;;;2.10;1.80;;;;;;;;;;5226381;28;20029;-72
2023/07/20 14:39:38;;;;;;;3.60;1.63;;;;;;;;;;5226765;28;20025;-72
2023/07/20 14:42:08;;;;;;;4.65;2.40;;;;;;;;;;5226713;28;20056;-71
2023/07/20 14:44:39;;;;;;;1.60;1.50;;;;;;;;;;5226775;28;20013;-72
2023/07/20 14:47:09;;;;;;;5.55;1.60;;;;;;;;;;5226073;28;20386;-72
2023/07/20 14:49:39;;;;;;;3.60;1.90;;;;;;;;;;5226388;28;20040;-72
2023/07/20 14:52:09;;;;;;;2.20;1.58;;;;;;;;;;5226599;28;20444;-71
2023/07/20 14:54:40;;;;;;;2.15;1.60;;;;;;;;;;5226666;28;20021;-72
2023/07/20 14:57:13;;;;;;;3.05;1.27;;;;;;;;;;5226100;28;20104;-72